Time;durP1;ratioP1;P1;durP2;ratioP2;P2;SDS_P1;SDS_P2;PMS_P1;PMS_P2;Temp;Humidity;BMP_temperature;BMP_pressure;BME280_temperature;BME280_humidity;BME280_pressure;Samples;Min_cycle;Max_cycle;Signal;HPM_P1;HPM_P2
2022/12/03 00:01:02;;;;;;;3.08;2.38;;;18.50;44.00;;;;;;6295211;28;20146;-63
2022/12/03 00:04:04;;;;;;;2.60;2.00;;;18.80;44.20;;;;;;6298264;27;20049;-62
2022/12/03 00:07:06;;;;;;;3.28;2.53;;;18.80;44.00;;;;;;6277764;28;21005;-62
2022/12/03 00:10:08;;;;;;;3.17;2.33;;;18.90;44.10;;;;;;6292047;27;20049;-62
2022/12/03 00:13:10;;;;;;;3.97;2.63;;;18.40;43.80;;;;;;6294333;27;20036;-62
2022/12/03 00:16:11;;;;;;;2.83;2.30;;;18.90;44.20;;;;;;6294633;27;20138;-63
2022/12/03 00:19:16;;;;;;;3.25;2.28;;;18.80;44.20;;;;;;6296598;28;20044;-62
2022/12/03 00:22:18;;;;;;;3.00;2.20;;;18.70;44.10;;;;;;6298208;28;20043;-63
2022/12/03 00:25:20;;;;;;;3.55;2.45;;;18.80;44.40;;;;;;6299363;28;20124;-63
2022/12/03 00:28:21;;;;;;;3.45;2.60;;;18.50;43.90;;;;;;6296585;28;21051;-63
2022/12/03 00:31:23;;;;;;;2.63;2.00;;;18.30;44.10;;;;;;6300706;28;20290;-63
2022/12/03 00:34:24;;;;;;;3.50;2.13;;;18.80;44.10;;;;;;6297135;27;20047;-62
2022/12/03 00:37:27;;;;;;;3.05;2.33;;;18.40;43.90;;;;;;6300597;28;20154;-62
2022/12/03 00:40:28;;;;;;;3.42;2.47;;;18.80;44.10;;;;;;6298259;28;20658;-63
2022/12/03 00:43:30;;;;;;;2.83;2.33;;;18.60;43.90;;;;;;6295930;28;20054;-63
2022/12/03 00:46:31;;;;;;;3.00;2.55;;;18.60;43.90;;;;;;6296004;28;20967;-63
2022/12/03 00:49:33;;;;;;;2.90;2.42;;;18.80;43.60;;;;;;6294967;28;20075;-63
2022/12/03 00:52:35;;;;;;;2.83;2.10;;;18.80;43.70;;;;;;6296528;28;20045;-63
2022/12/03 00:55:36;;;;;;;2.90;2.20;;;18.80;43.90;;;;;;6292295;28;20043;-62
2022/12/03 00:58:38;;;;;;;3.67;2.70;;;19.00;43.50;;;;;;6295331;28;20293;-62
2022/12/03 01:01:39;;;;;;;3.72;2.60;;;18.80;43.70;;;;;;6297956;28;20042;-63
2022/12/03 01:04:41;;;;;;;3.47;2.30;;;18.90;43.80;;;;;;6299129;28;20179;-62
2022/12/03 01:07:43;;;;;;;2.50;1.95;;;18.80;43.80;;;;;;6296803;28;20056;-63
2022/12/03 01:10:44;;;;;;;3.00;2.33;;;18.70;43.80;;;;;;6298986;28;20252;-62
2022/12/03 01:13:46;;;;;;;2.70;1.83;;;18.70;43.80;;;;;;6293245;28;20214;-62
2022/12/03 01:16:48;;;;;;;2.80;2.00;;;18.90;43.80;;;;;;6291802;28;20074;-63
2022/12/03 01:19:51;;;;;;;3.50;2.30;;;18.60;60.60;;;;;;6296592;28;20116;-62
2022/12/03 01:22:53;;;;;;;3.03;2.38;;;18.80;43.70;;;;;;6298781;28;20059;-62
2022/12/03 01:25:55;;;;;;;3.80;2.75;;;18.90;44.00;;;;;;6299298;28;20079;-62
2022/12/03 01:28:56;;;;;;;4.00;2.65;;;18.90;42.50;;;;;;6298750;28;20758;-62
2022/12/03 01:35:14;;;;;;;2.85;2.08;;;18.70;43.90;;;;;;6298139;28;20843;-62
2022/12/03 01:38:16;;;;;;;;;;;19.00;43.80;;;;;;6297317;27;20088;-62
2022/12/03 01:41:19;;;;;;;3.05;2.22;;;18.50;43.90;;;;;;6301248;27;19970;-62
2022/12/03 01:44:23;;;;;;;3.60;2.55;;;18.90;44.00;;;;;;6279962;28;20047;-62
2022/12/03 01:47:27;;;;;;;2.38;2.10;;;18.50;43.70;;;;;;6280995;28;20074;-62
2022/12/03 01:50:32;;;;;;;3.25;2.25;;;18.50;43.70;;;;;;6276684;28;20039;-62
2022/12/03 01:53:34;;;;;;;3.47;1.83;;;18.90;43.80;;;;;;6270398;28;20046;-62
2022/12/03 01:56:35;;;;;;;3.35;2.45;;;18.70;44.00;;;;;;6302810;28;20785;-62
2022/12/03 01:59:38;;;;;;;3.78;2.13;;;18.50;43.70;;;;;;6304986;28;20943;-62
2022/12/03 02:02:39;;;;;;;3.58;2.30;;;18.90;44.10;;;;;;6301646;28;20058;-62
2022/12/03 02:05:41;;;;;;;4.05;2.30;;;18.80;44.00;;;;;;6301583;28;20126;-62
2022/12/03 02:08:44;;;;;;;;;;;18.70;44.10;;;;;;6297901;28;20127;-62
2022/12/03 02:11:48;;;;;;;2.58;1.95;;;18.80;44.40;;;;;;6290786;28;20846;-61
2022/12/03 02:14:52;;;;;;;2.22;1.67;;;19.00;43.90;;;;;;6281891;28;20966;-61
2022/12/03 02:17:55;;;;;;;3.22;2.30;;;18.80;43.80;;;;;;6292546;28;20093;-61
2022/12/03 02:21:03;;;;;;;2.55;2.05;;;18.50;43.80;;;;;;6291178;28;20279;-62
2022/12/03 02:24:14;;;;;;;3.00;2.20;;;18.80;43.90;;;;;;6290625;28;20788;-62
2022/12/03 02:27:16;;;;;;;2.60;2.17;;;18.90;44.10;;;;;;6292971;28;20039;-61
2022/12/03 02:30:20;;;;;;;2.65;1.90;;;18.90;43.70;;;;;;6292528;28;20709;-62
2022/12/03 02:33:22;;;;;;;2.78;1.88;;;18.30;43.70;;;;;;6293076;28;20230;-62
2022/12/03 02:36:23;;;;;;;2.45;1.67;;;18.60;44.10;;;;;;6296237;28;21100;-61
2022/12/03 02:39:25;;;;;;;2.63;1.92;;;18.90;44.30;;;;;;6295693;28;20054;-62
2022/12/03 02:42:34;;;;;;;;;;;18.70;44.10;;;;;;6288124;28;20131;-60
2022/12/03 02:45:39;;;;;;;3.20;1.75;;;18.40;44.30;;;;;;6290483;28;20006;-62
2022/12/03 02:48:40;;;;;;;2.28;1.90;;;18.90;44.20;;;;;;6291252;28;20290;-62
2022/12/03 02:51:42;;;;;;;2.38;1.80;;;19.00;44.30;;;;;;6293517;28;20095;-61
2022/12/03 02:54:45;;;;;;;2.55;1.98;;;18.80;44.30;;;;;;6283881;27;20620;-62
2022/12/03 02:57:49;;;;;;;2.63;1.83;;;18.70;44.10;;;;;;6289441;28;20051;-62
2022/12/03 03:00:52;;;;;;;2.53;1.85;;;18.40;43.90;;;;;;6291236;28;20077;-62
2022/12/03 03:03:54;;;;;;;2.30;1.52;;;18.70;44.10;;;;;;6291187;28;20252;-62
2022/12/03 03:06:57;;;;;;;2.25;1.73;;;18.90;44.30;;;;;;6290932;27;20147;-62
2022/12/03 03:09:59;;;;;;;2.08;1.55;;;18.80;44.20;;;;;;6292332;27;21234;-60
2022/12/03 03:13:03;;;;;;;2.00;1.52;;;19.00;44.30;;;;;;6287809;28;20147;-61
2022/12/03 03:16:07;;;;;;;2.20;1.40;;;18.90;44.20;;;;;;6292356;28;20387;-62
2022/12/03 03:19:08;;;;;;;2.00;1.77;;;18.90;44.20;;;;;;6292579;28;20686;-62
2022/12/03 03:22:10;;;;;;;2.20;1.80;;;18.70;44.10;;;;;;6290031;28;20032;-62
2022/12/03 03:25:15;;;;;;;2.28;1.60;;;18.60;44.10;;;;;;6292197;28;20841;-62
2022/12/03 03:28:18;;;;;;;2.45;2.10;;;19.00;44.10;;;;;;6273127;28;20589;-61
2022/12/03 03:31:22;;;;;;;2.05;1.75;;;18.30;43.70;;;;;;6291579;28;20631;-62
2022/12/03 03:34:24;;;;;;;2.08;1.67;;;18.90;44.20;;;;;;6291818;28;20752;-62
2022/12/03 03:37:27;;;;;;;2.22;1.70;;;18.90;44.10;;;;;;6292388;28;20507;-61
2022/12/03 03:40:29;;;;;;;2.00;1.60;;;19.00;44.30;;;;;;6287793;28;20043;-62
2022/12/03 03:43:33;;;;;;;1.85;1.60;;;18.40;44.00;;;;;;6290230;28;20079;-61
2022/12/03 03:46:36;;;;;;;2.03;1.70;;;18.80;44.30;;;;;;6277420;28;20568;-63
2022/12/03 03:49:37;;;;;;;2.10;1.60;;;18.50;44.20;;;;;;6298008;28;20056;-61
2022/12/03 03:52:39;;;;;;;;;;;18.80;44.90;;;;;;6295313;28;20035;-61
2022/12/03 03:55:41;;;;;;;2.30;1.65;;;18.60;62.40;;;;;;6299440;28;19924;-62
2022/12/03 03:58:43;;;;;;;2.45;1.50;;;19.00;44.70;;;;;;6299810;28;21004;-62
2022/12/03 04:01:45;;;;;;;2.05;1.60;;;19.10;43.50;;;;;;6290167;27;21845;-62
2022/12/03 04:04:47;;;;;;;2.40;1.80;;;18.90;43.70;;;;;;6273722;28;20081;-62
2022/12/03 04:07:49;;;;;;;2.60;1.90;;;18.80;43.80;;;;;;6271715;28;21045;-62
2022/12/03 04:14:04;;;;;;;1.80;1.42;;;18.90;43.60;;;;;;6289643;28;20047;-61
2022/12/03 04:17:06;;;;;;;2.20;1.90;;;18.90;43.90;;;;;;6287567;28;20039;-62
2022/12/03 04:20:08;;;;;;;2.28;1.63;;;18.60;43.60;;;;;;6290232;28;20049;-61
2022/12/03 04:23:09;;;;;;;2.38;2.05;;;18.50;43.30;;;;;;6286992;28;20142;-62
2022/12/03 04:29:24;;;;;;;2.10;1.70;;;18.60;60.80;;;;;;6283275;28;20200;-62
2022/12/03 04:35:42;;;;;;;2.70;1.95;;;18.50;43.60;;;;;;6292004;28;20104;-62
2022/12/03 04:38:43;;;;;;;1.95;1.42;;;18.80;43.90;;;;;;6264789;28;20508;-61
2022/12/03 04:41:45;;;;;;;2.20;1.63;;;18.80;43.90;;;;;;6283292;28;20331;-62
2022/12/03 04:44:47;;;;;;;;;;;18.50;43.80;;;;;;6291437;28;20224;-61
2022/12/03 04:47:48;;;;;;;2.10;1.67;;;18.30;44.00;;;;;;6280465;28;20771;-61
2022/12/03 04:50:50;;;;;;;2.08;1.70;;;18.70;44.00;;;;;;6301348;28;20807;-61
2022/12/03 04:53:51;;;;;;;2.40;2.00;;;18.80;43.70;;;;;;6287385;28;20044;-62
2022/12/03 04:56:53;;;;;;;2.33;1.90;;;18.90;43.90;;;;;;6281074;28;20040;-62
2022/12/03 04:59:55;;;;;;;;;;;19.00;44.10;;;;;;6270320;27;20338;-62
2022/12/03 05:02:57;;;;;;;2.85;2.15;;;18.20;43.90;;;;;;6288510;28;20271;-62
2022/12/03 05:05:59;;;;;;;2.15;1.63;;;18.80;44.10;;;;;;6290759;28;20274;-62
2022/12/03 05:09:01;;;;;;;2.30;1.60;;;18.90;44.30;;;;;;6283225;27;20043;-62
2022/12/03 05:12:02;;;;;;;2.50;1.90;;;18.80;44.10;;;;;;6284049;28;20049;-62
2022/12/03 05:15:05;;;;;;;;;;;18.70;44.00;;;;;;6293523;27;20043;-62
2022/12/03 05:18:06;;;;;;;2.58;1.98;;;19.10;44.50;;;;;;6290086;28;19923;-62
2022/12/03 05:21:08;;;;;;;3.13;2.25;;;18.70;44.10;;;;;;6290419;28;20048;-62
2022/12/03 05:24:09;;;;;;;;;;;18.50;43.90;;;;;;6294788;28;20755;-62
2022/12/03 05:27:10;;;;;;;2.85;1.95;;;18.80;44.40;;;;;;6294480;28;20568;-62
2022/12/03 05:30:13;;;;;;;2.40;2.13;;;18.80;44.10;;;;;;6292106;28;20185;-62
2022/12/03 05:33:15;;;;;;;2.90;2.08;;;18.70;44.10;;;;;;6297138;28;20039;-62
2022/12/03 05:36:16;;;;;;;3.33;2.00;;;18.50;44.10;;;;;;6286071;28;20681;-62
2022/12/03 05:39:18;;;;;;;3.13;2.20;;;18.90;44.40;;;;;;6288452;28;20796;-62
2022/12/03 05:45:37;;;;;;;2.45;1.73;;;18.80;44.40;;;;;;6292576;28;20083;-62
2022/12/03 05:48:38;;;;;;;2.70;2.10;;;18.90;44.50;;;;;;6271941;28;21920;-61
2022/12/03 05:51:41;;;;;;;2.47;1.77;;;18.60;44.00;;;;;;6287475;28;20955;-62
2022/12/03 05:54:43;;;;;;;2.30;1.58;;;18.90;44.10;;;;;;6273634;28;20138;-61
2022/12/03 05:57:45;;;;;;;2.75;1.80;;;19.00;44.30;;;;;;6289154;28;20039;-62
2022/12/03 06:00:47;;;;;;;2.35;2.03;;;18.60;44.20;;;;;;6299682;28;20162;-62
2022/12/03 06:03:48;;;;;;;2.85;2.00;;;18.70;44.00;;;;;;6304153;28;20390;-62
2022/12/03 06:06:50;;;;;;;2.55;1.88;;;18.80;44.30;;;;;;6296386;27;20043;-62
2022/12/03 06:09:52;;;;;;;3.17;2.38;;;18.80;43.90;;;;;;6294643;27;20047;-62
2022/12/03 06:12:53;;;;;;;;;;;18.10;43.80;;;;;;6293672;28;20499;-62
2022/12/03 06:15:55;;;;;;;2.35;1.75;;;18.90;44.60;;;;;;6286590;28;19927;-62
2022/12/03 06:18:57;;;;;;;2.78;1.90;;;18.50;44.10;;;;;;6288342;28;20136;-62
2022/12/03 06:21:59;;;;;;;2.28;1.83;;;18.90;44.40;;;;;;6287801;28;20493;-61
2022/12/03 06:25:00;;;;;;;2.70;2.05;;;18.20;43.90;;;;;;6291373;28;20044;-62
2022/12/03 06:28:09;;;;;;;2.67;2.20;;;18.60;44.20;;;;;;6292736;28;20027;-62
2022/12/03 06:31:11;;;;;;;2.75;2.08;;;18.60;44.30;;;;;;6290280;28;21321;-61
2022/12/03 06:34:12;;;;;;;3.90;2.67;;;18.30;44.00;;;;;;6294922;28;20216;-62
2022/12/03 06:37:14;;;;;;;2.65;1.98;;;18.70;44.40;;;;;;6296272;28;20596;-61
2022/12/03 06:40:15;;;;;;;3.20;2.30;;;18.60;44.40;;;;;;6294038;28;20239;-62
2022/12/03 06:43:17;;;;;;;;;;;18.90;44.50;;;;;;6289660;28;20372;-62
2022/12/03 06:46:19;;;;;;;3.00;2.47;;;18.90;44.90;;;;;;6289444;28;19933;-62
2022/12/03 06:49:20;;;;;;;3.47;2.50;;;18.90;44.80;;;;;;6287674;27;20481;-62
2022/12/03 06:52:22;;;;;;;3.00;2.05;;;18.20;44.30;;;;;;6290056;28;20035;-62
2022/12/03 06:55:23;;;;;;;;;;;18.30;44.30;;;;;;6289749;28;20163;-61
2022/12/03 06:58:24;;;;;;;3.03;2.13;;;18.10;44.70;;;;;;6288029;28;20196;-61
2022/12/03 07:01:26;;;;;;;3.25;2.45;;;18.70;61.80;;;;;;6289048;28;20233;-61
2022/12/03 07:04:28;;;;;;;3.38;2.38;;;18.70;44.60;;;;;;6289679;28;20266;-61
2022/12/03 07:07:29;;;;;;;3.22;2.30;;;18.70;44.70;;;;;;6288287;28;20068;-62
2022/12/03 07:10:31;;;;;;;3.00;2.22;;;18.80;44.80;;;;;;6301606;28;20042;-62
2022/12/03 07:13:32;;;;;;;3.28;2.33;;;18.50;44.40;;;;;;6300193;28;20050;-62
2022/12/03 07:16:35;;;;;;;2.83;2.28;;;18.70;44.00;;;;;;6299644;28;20043;-62
2022/12/03 07:19:36;;;;;;;2.90;2.30;;;18.90;43.60;;;;;;6287097;28;20078;-62
2022/12/03 07:22:38;;;;;;;3.30;2.15;;;18.90;43.40;;;;;;6297094;28;20040;-62
2022/12/03 07:25:39;;;;;;;;;;;19.20;43.20;;;;;;6300239;28;20844;-62
2022/12/03 07:28:41;;;;;;;2.50;2.08;;;19.00;42.80;;;;;;6298302;28;19999;-62
2022/12/03 07:31:43;;;;;;;3.20;2.10;;;19.10;42.80;;;;;;6301869;28;20039;-62
2022/12/03 07:34:44;;;;;;;2.78;2.10;;;19.10;42.60;;;;;;6302646;28;20046;-61
2022/12/03 07:37:46;;;;;;;2.67;2.22;;;19.00;42.40;;;;;;6299857;28;20040;-62
2022/12/03 07:40:47;;;;;;;3.22;2.40;;;19.20;42.30;;;;;;6301420;28;20112;-62
2022/12/03 07:43:49;;;;;;;2.88;2.13;;;19.10;42.00;;;;;;6303076;28;20578;-62
2022/12/03 07:46:51;;;;;;;3.20;2.15;;;19.40;42.10;;;;;;6300257;28;20088;-61
2022/12/03 07:49:53;;;;;;;2.67;2.15;;;19.00;41.70;;;;;;6294934;28;20710;-62
2022/12/03 07:52:55;;;;;;;3.00;2.25;;;19.50;41.90;;;;;;6288273;28;20047;-62
2022/12/03 07:55:57;;;;;;;;;;;19.40;41.90;;;;;;6293476;28;20357;-62
2022/12/03 07:58:58;;;;;;;3.30;2.35;;;19.20;41.80;;;;;;6291557;27;20778;-62
2022/12/03 08:02:01;;;;;;;2.80;2.20;;;19.20;42.50;;;;;;6290547;28;20140;-62
2022/12/03 08:05:03;;;;;;;3.25;2.63;;;19.50;41.70;;;;;;6289888;28;20035;-62
2022/12/03 08:08:05;;;;;;;3.28;2.58;;;19.50;41.80;;;;;;6289123;28;20598;-62
2022/12/03 08:11:13;;;;;;;3.17;2.65;;;19.10;41.60;;;;;;6291176;28;20039;-62
2022/12/03 08:14:17;;;;;;;3.15;2.38;;;19.50;41.70;;;;;;6262207;28;20104;-62
2022/12/03 08:17:20;;;;;;;3.65;2.63;;;19.10;41.40;;;;;;6262364;28;20594;-62
2022/12/03 08:20:25;;;;;;;4.18;2.70;;;19.60;41.80;;;;;;6303061;28;20061;-62
2022/12/03 08:23:27;;;;;;;2.55;2.30;;;19.90;41.80;;;;;;6291608;28;20158;-62
2022/12/03 08:26:28;;;;;;;3.45;2.50;;;19.30;58.90;;;;;;6296869;28;20343;-62
2022/12/03 08:29:30;;;;;;;3.50;2.60;;;19.70;41.70;;;;;;6297254;28;20482;-62
2022/12/03 08:32:33;;;;;;;2.92;2.30;;;19.50;40.80;;;;;;6290342;28;20363;-62
2022/12/03 08:35:34;;;;;;;3.35;2.60;;;19.80;40.30;;;;;;6291366;28;20125;-62
2022/12/03 08:38:36;;;;;;;3.20;2.45;;;19.30;40.70;;;;;;6291103;28;20166;-62
2022/12/03 08:44:54;;;;;;;3.03;2.40;;;20.00;41.00;;;;;;6287191;27;20640;-62
2022/12/03 08:47:57;;;;;;;3.13;2.33;;;19.80;40.80;;;;;;6288751;27;20047;-62
2022/12/03 08:51:01;;;;;;;2.90;2.28;;;19.90;40.80;;;;;;6294916;27;20899;-62
2022/12/03 08:54:06;;;;;;;3.17;2.30;;;19.70;40.60;;;;;;6276440;28;20406;-62
2022/12/03 08:57:23;;;;;;;3.38;2.47;;;19.90;40.70;;;;;;6264485;28;20173;-63
2022/12/03 09:00:26;;;;;;;2.72;2.20;;;19.80;40.60;;;;;;6302708;28;20149;-62
2022/12/03 09:03:30;;;;;;;3.67;2.60;;;19.80;40.60;;;;;;6302855;28;20174;-62
2022/12/03 09:06:32;;;;;;;2.63;2.42;;;19.60;40.50;;;;;;6305242;28;20604;-62
2022/12/03 09:09:33;;;;;;;3.33;2.53;;;19.90;40.70;;;;;;6293930;28;20153;-62
2022/12/03 09:12:35;;;;;;;2.70;2.30;;;19.90;40.70;;;;;;6305069;27;20074;-62
2022/12/03 09:15:36;;;;;;;3.22;2.33;;;19.70;40.50;;;;;;6302959;28;20876;-63
2022/12/03 09:18:39;;;;;;;4.63;2.85;;;19.70;40.50;;;;;;6299332;28;20089;-59
2022/12/03 09:21:40;;;;;;;3.20;2.60;;;20.00;41.00;;;;;;6287410;28;20159;-58
2022/12/03 09:24:42;;;;;;;3.30;2.65;;;20.50;41.40;;;;;;6303908;27;20038;-58
2022/12/03 09:27:43;;;;;;;3.22;2.55;;;20.00;41.50;;;;;;6297022;28;20110;-58
2022/12/03 09:30:45;;;;;;;2.80;2.28;;;19.30;41.30;;;;;;6294891;27;20065;-58
2022/12/03 09:33:47;;;;;;;3.65;2.50;;;19.40;41.30;;;;;;6290926;28;20044;-58
2022/12/03 09:36:48;;;;;;;2.90;2.60;;;19.70;41.30;;;;;;6293484;27;20136;-56
2022/12/03 09:39:50;;;;;;;3.22;2.83;;;19.30;40.80;;;;;;6293125;27;20039;-58
2022/12/03 09:42:51;;;;;;;3.35;2.28;;;20.00;40.90;;;;;;6295400;28;20489;-57
2022/12/03 09:45:53;;;;;;;3.67;2.42;;;19.90;41.20;;;;;;6293681;27;20729;-57
2022/12/03 09:48:55;;;;;;;;;;;19.40;41.00;;;;;;6299821;27;20347;-57
2022/12/03 09:52:00;;;;;;;3.30;2.65;;;19.70;41.60;;;;;;6295578;28;20265;-58
2022/12/03 09:55:10;;;;;;;3.40;2.63;;;19.80;41.50;;;;;;6293268;28;20631;-56
2022/12/03 09:58:14;;;;;;;2.92;2.50;;;19.70;41.30;;;;;;6262016;28;20042;-58
2022/12/03 10:01:16;;;;;;;3.58;2.60;;;19.80;41.30;;;;;;6282829;28;20161;-57
2022/12/03 10:04:19;;;;;;;3.28;2.28;;;19.40;41.30;;;;;;6286221;27;20043;-58
2022/12/03 10:07:21;;;;;;;3.42;2.60;;;19.60;41.00;;;;;;6331675;22;20864;-58
2022/12/03 10:10:24;;;;;;;2.80;2.45;;;19.70;41.30;;;;;;6260452;28;20048;-58
2022/12/03 10:13:28;;;;;;;3.50;2.60;;;19.90;41.20;;;;;;6269831;28;20044;-57
2022/12/03 10:16:30;;;;;;;3.53;2.40;;;19.30;40.90;;;;;;6266919;28;20203;-58
2022/12/03 10:19:34;;;;;;;3.40;2.40;;;20.00;41.20;;;;;;6265424;28;20041;-57
2022/12/03 10:22:36;;;;;;;4.13;3.00;;;20.00;41.20;;;;;;6244898;28;20231;-57
2022/12/03 10:25:48;;;;;;;;;;;19.90;40.80;;;;;;6261800;28;20040;-56
2022/12/03 10:28:51;;;;;;;3.00;2.35;;;19.70;41.30;;;;;;6263618;28;20862;-57
2022/12/03 10:31:55;;;;;;;3.17;2.60;;;19.80;41.00;;;;;;6267194;28;20533;-58
2022/12/03 10:35:08;;;;;;;3.28;2.60;;;19.70;40.90;;;;;;6244777;28;20888;-56
2022/12/03 10:38:21;;;;;;;3.03;2.58;;;19.80;41.10;;;;;;6241657;28;20342;-57
2022/12/03 10:41:24;;;;;;;2.95;2.42;;;20.10;41.10;;;;;;6259342;28;20055;-57
2022/12/03 10:44:29;;;;;;;3.83;2.45;;;20.10;41.10;;;;;;6248409;28;20236;-58
2022/12/03 10:47:30;;;;;;;3.25;2.40;;;19.90;41.10;;;;;;6272413;28;20032;-56
2022/12/03 10:50:35;;;;;;;3.42;2.47;;;19.60;40.80;;;;;;6266864;28;20052;-58
2022/12/03 10:53:39;;;;;;;3.17;2.55;;;20.10;40.70;;;;;;6260604;28;20639;-58
2022/12/03 10:56:40;;;;;;;2.92;2.45;;;19.70;40.20;;;;;;6236905;28;20388;-58
2022/12/03 10:59:42;;;;;;;;;;;20.00;40.50;;;;;;6256298;28;20054;-58
2022/12/03 11:02:44;;;;;;;3.20;2.67;;;19.70;40.40;;;;;;6261469;28;20185;-56
2022/12/03 11:05:46;;;;;;;3.80;3.08;;;20.20;40.70;;;;;;6261018;28;21117;-56
2022/12/03 11:08:50;;;;;;;3.50;2.75;;;19.80;40.60;;;;;;6260511;28;20399;-58
2022/12/03 11:12:03;;;;;;;2.70;2.35;;;19.70;40.40;;;;;;6257080;28;20048;-57
2022/12/03 11:15:13;;;;;;;2.63;2.33;;;20.20;40.20;;;;;;6256114;28;20155;-57
2022/12/03 11:18:43;;;;;;;2.95;2.30;;;19.70;40.40;;;;;;6260007;28;20044;-57
2022/12/03 11:22:15;;;;;;;3.28;2.28;;;19.80;40.40;;;;;;6252543;28;20521;-57
2022/12/03 11:25:43;;;;;;;3.30;2.33;;;20.10;40.70;;;;;;6242711;28;20044;-57
2022/12/03 11:28:52;;;;;;;2.95;2.35;;;20.10;40.70;;;;;;6245226;28;20039;-57
2022/12/03 11:31:54;;;;;;;2.33;2.00;;;20.10;40.70;;;;;;6253933;28;20362;-57
2022/12/03 11:34:55;;;;;;;2.38;2.03;;;20.20;40.80;;;;;;6252607;28;20108;-57
2022/12/03 11:38:33;;;;;;;2.30;1.90;;;19.70;40.50;;;;;;6252976;28;20187;-57
2022/12/03 11:41:35;;;;;;;3.10;2.20;;;19.80;40.30;;;;;;6236719;28;20445;-57
2022/12/03 11:44:37;;;;;;;2.58;2.17;;;20.00;40.50;;;;;;6253215;28;20533;-55
2022/12/03 11:47:42;;;;;;;3.05;2.40;;;20.40;40.60;;;;;;6253737;28;20269;-58
2022/12/03 11:50:48;;;;;;;3.83;2.30;;;20.00;40.10;;;;;;6246979;28;20259;-58
2022/12/03 11:53:51;;;;;;;2.85;2.33;;;19.70;40.10;;;;;;6237608;28;20040;-57
2022/12/03 11:56:54;;;;;;;2.88;2.15;;;20.00;40.40;;;;;;6231428;28;20314;-58
2022/12/03 11:59:57;;;;;;;2.22;2.00;;;20.20;40.40;;;;;;6252827;28;20358;-58
2022/12/03 12:02:59;;;;;;;2.53;1.98;;;20.20;40.40;;;;;;6255049;28;20454;-57
2022/12/03 12:06:01;;;;;;;;;;;20.30;40.60;;;;;;6251126;28;20306;-58
2022/12/03 12:09:03;;;;;;;3.22;2.40;;;20.40;41.00;;;;;;6253503;28;19927;-57
2022/12/03 12:12:26;;;;;;;2.25;2.05;;;20.20;40.60;;;;;;6254086;28;20040;-58
2022/12/03 12:15:42;;;;;;;2.75;2.20;;;19.80;40.10;;;;;;6232936;28;20143;-58
2022/12/03 12:18:45;;;;;;;2.63;2.25;;;20.00;40.20;;;;;;6231876;28;20300;-58
2022/12/03 12:21:47;;;;;;;2.03;1.70;;;20.20;40.20;;;;;;6223853;28;20437;-57
2022/12/03 12:24:51;;;;;;;2.60;2.13;;;20.30;40.10;;;;;;6234101;28;20274;-58
2022/12/03 12:27:54;;;;;;;2.30;2.10;;;20.30;40.40;;;;;;6237600;28;20776;-57
2022/12/03 12:30:55;;;;;;;2.33;1.92;;;20.20;40.40;;;;;;6254703;28;20288;-58
2022/12/03 12:33:56;;;;;;;;;;;20.30;40.30;;;;;;6253868;28;20038;-57
2022/12/03 12:37:00;;;;;;;1.85;1.65;;;19.90;40.50;;;;;;6255327;28;19943;-58
2022/12/03 12:40:09;;;;;;;2.28;2.00;;;20.30;40.30;;;;;;6257549;28;20062;-55
2022/12/03 12:43:20;;;;;;;2.50;2.13;;;19.90;39.90;;;;;;6251080;28;20043;-57
2022/12/03 12:46:25;;;;;;;2.25;1.92;;;20.10;39.90;;;;;;6249297;28;20052;-57
2022/12/03 12:49:48;;;;;;;2.28;1.88;;;20.10;40.20;;;;;;6238745;28;20857;-58
2022/12/03 12:52:58;;;;;;;2.67;2.05;;;20.10;40.10;;;;;;6254541;28;20075;-58
2022/12/03 12:56:05;;;;;;;2.10;1.90;;;19.90;39.80;;;;;;6231109;28;20343;-57
2022/12/03 12:59:11;;;;;;;2.63;2.13;;;20.20;40.00;;;;;;6243983;28;20048;-57
2022/12/03 13:02:38;;;;;;;2.17;1.80;;;20.00;40.00;;;;;;6242365;28;20236;-57
2022/12/03 13:05:42;;;;;;;2.30;2.10;;;20.00;40.20;;;;;;6243555;28;20216;-57
2022/12/03 13:08:46;;;;;;;2.28;1.95;;;20.00;40.10;;;;;;6241093;28;20048;-58
2022/12/03 13:11:52;;;;;;;2.67;1.92;;;20.40;40.50;;;;;;6231886;28;20128;-58
2022/12/03 13:14:57;;;;;;;2.50;2.30;;;19.70;40.00;;;;;;6244959;28;20171;-58
2022/12/03 13:17:59;;;;;;;2.83;2.15;;;20.30;40.40;;;;;;6250263;28;20135;-58
2022/12/03 13:21:14;;;;;;;2.58;2.10;;;20.00;40.20;;;;;;6247549;28;20393;-54
2022/12/03 13:24:32;;;;;;;2.47;2.08;;;19.70;40.10;;;;;;6239993;28;20586;-57
2022/12/03 13:27:34;;;;;;;2.13;1.92;;;20.30;40.40;;;;;;6229802;28;20044;-58
2022/12/03 13:30:37;;;;;;;2.60;2.08;;;19.80;40.10;;;;;;6244333;28;20048;-58
2022/12/03 13:33:38;;;;;;;2.63;1.98;;;19.80;40.10;;;;;;6247887;28;20051;-56
2022/12/03 13:36:42;;;;;;;2.42;2.03;;;20.40;40.60;;;;;;6244627;28;20040;-57
2022/12/03 13:39:46;;;;;;;2.67;2.25;;;20.30;40.50;;;;;;6231121;28;20033;-57
2022/12/03 13:42:48;;;;;;;2.45;2.13;;;20.30;40.60;;;;;;6230357;28;20785;-57
2022/12/03 13:45:52;;;;;;;;;;;20.20;40.70;;;;;;6248416;28;20345;-56
2022/12/03 13:48:54;;;;;;;2.42;2.05;;;20.40;41.20;;;;;;6250004;28;19927;-57
2022/12/03 13:52:08;;;;;;;2.20;1.70;;;20.40;40.80;;;;;;6247287;28;20562;-58
2022/12/03 13:55:13;;;;;;;2.50;2.22;;;19.90;40.50;;;;;;6250300;28;20036;-58
2022/12/03 13:58:15;;;;;;;2.47;2.15;;;20.30;40.90;;;;;;6251860;28;20078;-56
2022/12/03 14:01:17;;;;;;;2.97;2.25;;;20.00;40.70;;;;;;6253395;28;20591;-57
2022/12/03 14:04:19;;;;;;;2.70;2.20;;;19.80;40.40;;;;;;6252506;28;20755;-57
2022/12/03 14:07:21;;;;;;;3.17;2.30;;;20.00;40.80;;;;;;6252594;28;20505;-58
2022/12/03 14:10:23;;;;;;;2.70;2.30;;;20.20;41.00;;;;;;6247067;28;20980;-58
2022/12/03 14:13:24;;;;;;;2.78;2.00;;;20.20;40.60;;;;;;6229671;28;20089;-58
2022/12/03 14:16:26;;;;;;;2.65;2.20;;;19.90;40.60;;;;;;6248418;28;21132;-55
2022/12/03 14:19:28;;;;;;;2.72;2.20;;;19.60;40.60;;;;;;6255220;28;20497;-56
2022/12/03 14:22:30;;;;;;;2.45;2.00;;;20.00;40.90;;;;;;6249113;28;20946;-58
2022/12/03 14:25:31;;;;;;;2.90;2.30;;;19.90;41.00;;;;;;6249451;28;20565;-57
2022/12/03 14:28:33;;;;;;;3.30;2.50;;;20.10;40.90;;;;;;6243214;28;20584;-57
2022/12/03 14:31:34;;;;;;;;;;;19.80;41.20;;;;;;6240811;28;20436;-57
2022/12/03 14:34:36;;;;;;;3.97;2.47;;;20.20;41.50;;;;;;6240218;28;20323;-57
2022/12/03 14:37:38;;;;;;;;;;;20.20;41.30;;;;;;6234482;28;20122;-58
2022/12/03 14:40:39;;;;;;;2.83;2.38;;;20.10;41.40;;;;;;6235570;28;19923;-57
2022/12/03 14:43:40;;;;;;;2.22;2.03;;;20.10;41.40;;;;;;6242310;28;20047;-57
2022/12/03 14:46:42;;;;;;;2.30;1.98;;;19.90;41.50;;;;;;6248519;28;20484;-57
2022/12/03 14:49:44;;;;;;;2.42;1.98;;;19.80;41.40;;;;;;6240547;28;20662;-57
2022/12/03 14:52:46;;;;;;;2.67;2.05;;;20.10;41.50;;;;;;6243246;28;20040;-57
2022/12/03 14:55:47;;;;;;;;;;;19.70;41.40;;;;;;6238627;28;20498;-57
2022/12/03 14:58:51;;;;;;;2.58;2.20;;;20.00;41.80;;;;;;6237067;28;20141;-57
2022/12/03 15:01:56;;;;;;;2.55;2.20;;;19.90;41.40;;;;;;6232341;28;20036;-58
2022/12/03 15:04:58;;;;;;;2.83;2.28;;;20.00;59.70;;;;;;6238674;28;20071;-57
2022/12/03 15:08:00;;;;;;;2.17;1.80;;;19.90;41.60;;;;;;6237387;28;20237;-57
2022/12/03 15:11:02;;;;;;;;;;;20.10;40.70;;;;;;6237565;28;20051;-58
2022/12/03 15:14:05;;;;;;;1.92;1.73;;;20.00;40.90;;;;;;6241482;28;19928;-58
2022/12/03 15:17:07;;;;;;;2.60;2.10;;;19.80;40.50;;;;;;6223060;28;20158;-57
2022/12/03 15:20:10;;;;;;;2.33;1.88;;;20.10;41.40;;;;;;6242560;28;20075;-58
2022/12/03 15:23:11;;;;;;;2.03;1.70;;;20.00;41.20;;;;;;6239386;28;20046;-58
2022/12/03 15:26:15;;;;;;;2.20;2.00;;;19.50;41.10;;;;;;6241998;28;20478;-58
2022/12/03 15:29:17;;;;;;;1.85;1.50;;;19.90;41.50;;;;;;6240370;28;20497;-57
2022/12/03 15:32:19;;;;;;;2.03;1.83;;;19.80;41.70;;;;;;6240028;28;20593;-58
2022/12/03 15:35:20;;;;;;;2.60;1.90;;;19.70;41.70;;;;;;6238408;28;20339;-58
2022/12/03 15:38:22;;;;;;;2.50;1.92;;;19.90;41.70;;;;;;6237247;28;20040;-57
2022/12/03 15:41:27;;;;;;;2.72;2.00;;;19.90;41.70;;;;;;6242703;28;20250;-57
2022/12/03 15:44:29;;;;;;;2.53;2.25;;;19.60;41.80;;;;;;6242653;28;20466;-54
2022/12/03 15:47:31;;;;;;;2.75;2.13;;;19.90;41.90;;;;;;6237505;28;20870;-57
2022/12/03 15:50:32;;;;;;;2.15;1.75;;;19.80;41.80;;;;;;6240412;28;20044;-57
2022/12/03 15:53:41;;;;;;;2.72;2.20;;;19.80;41.60;;;;;;6243610;28;20299;-57
2022/12/03 15:56:43;;;;;;;2.72;2.25;;;19.80;41.90;;;;;;6206696;28;20338;-57
2022/12/03 15:59:44;;;;;;;2.13;1.90;;;19.70;41.80;;;;;;6236535;28;20741;-54
2022/12/03 16:02:47;;;;;;;2.45;2.00;;;19.90;42.10;;;;;;6241161;28;20302;-56
2022/12/03 16:05:54;;;;;;;1.90;1.70;;;19.90;42.10;;;;;;6238429;28;20660;-57
2022/12/03 16:08:55;;;;;;;;;;;19.60;42.10;;;;;;6231639;28;20818;-58
2022/12/03 16:11:56;;;;;;;1.70;1.55;;;19.90;42.60;;;;;;6242406;28;20127;-57
2022/12/03 16:14:58;;;;;;;2.85;2.33;;;19.70;42.30;;;;;;6239535;28;20306;-58
2022/12/03 16:18:00;;;;;;;2.47;1.90;;;19.60;41.80;;;;;;6235438;28;20328;-57
2022/12/03 16:21:11;;;;;;;2.65;2.25;;;19.60;42.40;;;;;;6236246;28;20856;-57